Time;durP1;ratioP1;P1;durP2;ratioP2;P2;SDS_P1;SDS_P2;PMS_P1;PMS_P2;Temp;Humidity;BMP_temperature;BMP_pressure;BME280_temperature;BME280_humidity;BME280_pressure;Samples;Min_cycle;Max_cycle;Signal;HPM_P1;HPM_P2
2022/01/26 00:06:28;;;;;;;83.63;32.78;;;;;;;;;;5063231;28;20075;-70
2022/01/26 00:08:53;;;;;;;81.47;32.58;;;;;;;;;;5066090;28;20508;-70
2022/01/26 00:11:18;;;;;;;86.40;31.20;;;;;;;;;;5065238;28;20021;-70
2022/01/26 00:13:44;;;;;;;82.65;30.80;;;;;;;;;;5068794;28;20032;-70
2022/01/26 00:16:18;;;;;;;80.05;30.42;;;;;;;;;;5070484;28;20025;-71
2022/01/26 00:18:43;;;;;;;78.32;29.90;;;;;;;;;;5066777;28;20563;-70
2022/01/26 00:21:24;;;;;;;88.13;31.65;;;;;;;;;;5067780;28;20040;-71
2022/01/26 00:29:15;;;;;;;74.38;28.77;;;;;;;;;;5068684;28;20246;-71
2022/01/26 00:33:06;;;;;;;67.63;27.67;;;;;;;;;;5068806;28;20025;-69
2022/01/26 00:42:53;;;;;;;;;;;;;;;;;;5069147;28;20607;-69
2022/01/26 00:45:22;;;;;;;74.07;28.70;;;;;;;;;;5065141;28;20421;-70
2022/01/26 00:47:48;;;;;;;81.47;30.73;;;;;;;;;;5064191;28;20463;-71
2022/01/26 00:50:13;;;;;;;81.18;30.13;;;;;;;;;;5065293;28;20116;-70
2022/01/26 00:52:43;;;;;;;75.95;29.27;;;;;;;;;;5069531;28;20353;-70
2022/01/26 00:55:13;;;;;;;84.95;30.65;;;;;;;;;;5066482;28;20031;-69
2022/01/26 00:57:38;;;;;;;;;;;;;;;;;;5059013;28;20043;-69
2022/01/26 01:00:05;;;;;;;85.54;30.40;;;;;;;;;;5069012;28;19908;-70
2022/01/26 01:02:32;;;;;;;84.60;30.88;;;;;;;;;;5068769;28;20035;-72
2022/01/26 01:05:00;;;;;;;84.10;31.48;;;;;;;;;;5064440;28;20530;-70
2022/01/26 01:07:26;;;;;;;86.35;28.88;;;;;;;;;;5068318;28;20040;-70
2022/01/26 01:09:51;;;;;;;86.60;32.63;;;;;;;;;;5064982;28;20032;-71
2022/01/26 01:12:16;;;;;;;80.35;29.95;;;;;;;;;;5058498;28;20411;-69
2022/01/26 01:14:44;;;;;;;83.38;31.80;;;;;;;;;;5066912;28;20024;-71
2022/01/26 01:17:19;;;;;;;74.97;30.05;;;;;;;;;;5061420;28;20035;-70
2022/01/26 01:20:01;;;;;;;86.55;31.75;;;;;;;;;;5065709;28;20356;-70
2022/01/26 01:22:45;;;;;;;78.28;31.15;;;;;;;;;;5066501;28;20416;-69
2022/01/26 01:32:53;;;;;;;80.30;29.48;;;;;;;;;;5056918;28;20060;-69
2022/01/26 01:35:19;;;;;;;81.40;31.52;;;;;;;;;;5065153;28;20092;-69
2022/01/26 01:37:44;;;;;;;77.60;30.70;;;;;;;;;;5064905;28;20132;-70
2022/01/26 01:40:10;;;;;;;77.57;29.63;;;;;;;;;;5066868;28;20047;-69
2022/01/26 01:42:35;;;;;;;78.38;29.42;;;;;;;;;;5060506;28;20048;-69
2022/01/26 01:45:00;;;;;;;83.70;31.03;;;;;;;;;;5066276;28;20024;-70
2022/01/26 01:47:26;;;;;;;74.65;29.80;;;;;;;;;;5067065;28;20189;-70
2022/01/26 01:49:51;;;;;;;83.05;31.60;;;;;;;;;;5064866;28;20111;-70
2022/01/26 01:52:17;;;;;;;82.45;30.83;;;;;;;;;;5057573;28;20032;-69
2022/01/26 01:54:48;;;;;;;81.60;30.70;;;;;;;;;;5063709;28;20425;-70
2022/01/26 01:57:20;;;;;;;77.82;29.27;;;;;;;;;;5065736;28;20388;-70
2022/01/26 01:59:45;;;;;;;76.88;29.15;;;;;;;;;;5064951;28;20527;-70
2022/01/26 02:02:11;;;;;;;80.07;29.70;;;;;;;;;;5063627;28;20100;-70
2022/01/26 02:04:36;;;;;;;72.90;28.23;;;;;;;;;;5059737;28;20016;-70
2022/01/26 02:07:01;;;;;;;101.07;31.25;;;;;;;;;;5059319;28;20057;-70
2022/01/26 02:09:26;;;;;;;79.18;28.95;;;;;;;;;;5052178;28;20055;-71
2022/01/26 02:11:53;;;;;;;74.53;26.92;;;;;;;;;;5052735;28;20442;-70
2022/01/26 02:14:44;;;;;;;103.35;28.98;;;;;;;;;;5060108;28;20047;-69
2022/01/26 02:17:17;;;;;;;75.73;26.93;;;;;;;;;;5059952;28;20580;-70
2022/01/26 02:49:30;;;;;;;79.20;28.77;;;;;;;;;;5060827;28;20046;-70
2022/01/26 02:55:13;;;;;;;96.33;27.70;;;;;;;;;;5005396;28;20022;-70
2022/01/26 03:00:25;;;;;;;73.57;28.77;;;;;;;;;;5002487;28;20053;-70
2022/01/26 03:05:22;;;;;;;71.47;26.07;;;;;;;;;;5053436;28;20415;-70
2022/01/26 03:07:54;;;;;;;74.37;29.37;;;;;;;;;;5063335;28;20068;-69
2022/01/26 03:10:32;;;;;;;76.83;28.53;;;;;;;;;;5064481;28;20475;-70
2022/01/26 03:13:04;;;;;;;80.50;30.73;;;;;;;;;;5065724;28;20047;-70
2022/01/26 03:15:38;;;;;;;71.70;26.87;;;;;;;;;;5066113;28;20512;-69
2022/01/26 03:20:30;;;;;;;70.13;28.10;;;;;;;;;;5061408;28;20032;-70
2022/01/26 03:36:58;;;;;;;118.07;31.53;;;;;;;;;;4909500;29;20400;-70
2022/01/26 03:39:25;;;;;;;74.80;28.27;;;;;;;;;;4906007;29;20445;-70
2022/01/26 03:42:05;;;;;;;67.20;26.57;;;;;;;;;;4899149;29;20132;-70
2022/01/26 03:44:31;;;;;;;67.70;25.40;;;;;;;;;;4906982;29;20036;-71
2022/01/26 03:46:56;;;;;;;86.82;28.50;;;;;;;;;;4901029;29;20067;-70
2022/01/26 03:49:21;;;;;;;91.93;28.23;;;;;;;;;;4903890;29;20144;-71
2022/01/26 03:51:46;;;;;;;126.85;30.65;;;;;;;;;;4911561;29;20481;-71
2022/01/26 03:54:12;;;;;;;90.73;30.20;;;;;;;;;;4904706;29;20036;-71
2022/01/26 03:56:38;;;;;;;76.00;27.07;;;;;;;;;;4915256;29;20468;-69
2022/01/26 03:59:03;;;;;;;111.93;29.70;;;;;;;;;;4905728;29;20036;-69
2022/01/26 04:01:29;;;;;;;79.13;27.27;;;;;;;;;;4908395;29;20050;-69
2022/01/26 04:03:54;;;;;;;76.53;28.13;;;;;;;;;;4901301;29;20075;-70
2022/01/26 04:06:19;;;;;;;90.63;29.23;;;;;;;;;;4925482;29;20039;-70
2022/01/26 04:08:45;;;;;;;205.13;33.20;;;;;;;;;;4971650;28;20044;-69
2022/01/26 04:13:46;;;;;;;103.00;29.33;;;;;;;;;;5064871;28;20059;-69
2022/01/26 04:16:11;;;;;;;122.20;31.47;;;;;;;;;;5067959;28;20064;-69
2022/01/26 04:18:39;;;;;;;92.43;28.47;;;;;;;;;;5068626;28;20040;-69
2022/01/26 04:23:54;;;;;;;99.30;29.80;;;;;;;;;;5068568;28;20149;-68
2022/01/26 04:26:27;;;;;;;82.03;28.90;;;;;;;;;;5066356;28;20101;-70
2022/01/26 04:28:58;;;;;;;114.00;30.47;;;;;;;;;;5069087;28;20029;-69
2022/01/26 04:31:23;;;;;;;143.20;32.90;;;;;;;;;;5067173;28;20028;-69
2022/01/26 04:33:50;;;;;;;98.83;30.43;;;;;;;;;;5067146;28;20047;-71
2022/01/26 04:36:21;;;;;;;79.40;29.83;;;;;;;;;;5067182;28;20031;-69
2022/01/26 04:38:52;;;;;;;74.97;29.00;;;;;;;;;;5058727;28;20094;-69
2022/01/26 04:43:55;;;;;;;88.20;30.07;;;;;;;;;;5065343;28;20046;-70
2022/01/26 04:46:20;;;;;;;;;;;;;;;;;;5069471;28;20048;-70
2022/01/26 04:48:46;;;;;;;91.13;30.10;;;;;;;;;;5066474;28;19909;-70
2022/01/26 04:51:11;;;;;;;85.10;28.67;;;;;;;;;;5065877;28;20274;-70
2022/01/26 04:53:36;;;;;;;85.30;30.93;;;;;;;;;;5062676;28;20094;-70
2022/01/26 04:56:01;;;;;;;84.33;30.93;;;;;;;;;;5068710;28;20063;-70
2022/01/26 04:58:26;;;;;;;75.43;31.17;;;;;;;;;;5068717;28;20047;-70
2022/01/26 05:00:52;;;;;;;76.00;29.90;;;;;;;;;;5058344;28;20024;-70
2022/01/26 05:03:17;;;;;;;78.13;27.70;;;;;;;;;;5059715;28;20058;-70
2022/01/26 05:05:42;;;;;;;70.83;29.90;;;;;;;;;;5067598;28;20021;-68
2022/01/26 05:08:07;;;;;;;76.17;30.10;;;;;;;;;;5066732;28;20055;-69
2022/01/26 05:10:34;;;;;;;99.43;30.70;;;;;;;;;;5066807;28;20028;-69
2022/01/26 05:12:59;;;;;;;90.13;30.63;;;;;;;;;;5064159;28;20028;-71
2022/01/26 05:15:25;;;;;;;73.57;27.30;;;;;;;;;;5064949;28;20915;-70
2022/01/26 05:17:51;;;;;;;69.53;27.43;;;;;;;;;;5065702;28;20463;-70
2022/01/26 05:20:16;;;;;;;87.03;29.83;;;;;;;;;;5067085;28;20035;-70
2022/01/26 05:22:44;;;;;;;70.30;27.93;;;;;;;;;;5068409;28;20069;-69
2022/01/26 05:25:09;;;;;;;68.50;28.27;;;;;;;;;;5066159;28;20024;-70
2022/01/26 05:27:35;;;;;;;68.17;28.03;;;;;;;;;;5064685;28;20032;-68
2022/01/26 05:30:00;;;;;;;58.13;25.37;;;;;;;;;;5059057;28;20027;-69
2022/01/26 05:32:26;;;;;;;52.70;23.17;;;;;;;;;;5066180;28;20028;-71
2022/01/26 05:34:51;;;;;;;53.00;23.50;;;;;;;;;;5060999;28;20028;-69
2022/01/26 05:37:16;;;;;;;59.90;24.93;;;;;;;;;;5062309;28;20094;-70
2022/01/26 05:39:41;;;;;;;56.47;23.57;;;;;;;;;;5067168;28;20555;-68
2022/01/26 05:42:07;;;;;;;58.03;25.47;;;;;;;;;;5068358;28;20033;-69
2022/01/26 05:44:32;;;;;;;49.70;24.03;;;;;;;;;;5063108;28;20037;-69
2022/01/26 05:46:57;;;;;;;53.80;24.53;;;;;;;;;;5060930;28;20119;-70
2022/01/26 05:49:23;;;;;;;53.03;23.07;;;;;;;;;;5062725;28;20016;-70
2022/01/26 05:51:48;;;;;;;52.13;22.60;;;;;;;;;;5061516;28;20028;-70
2022/01/26 05:54:15;;;;;;;53.97;24.13;;;;;;;;;;5068316;28;20507;-70
2022/01/26 05:56:42;;;;;;;45.10;21.70;;;;;;;;;;5063928;28;20038;-70
2022/01/26 05:59:07;;;;;;;43.13;21.03;;;;;;;;;;5065257;28;20842;-71
2022/01/26 06:01:32;;;;;;;44.80;21.43;;;;;;;;;;5063140;28;20022;-71
2022/01/26 06:03:57;;;;;;;38.90;18.50;;;;;;;;;;5065639;28;20521;-70
2022/01/26 06:06:23;;;;;;;41.63;20.63;;;;;;;;;;5067962;28;20044;-70
2022/01/26 06:08:48;;;;;;;44.50;20.57;;;;;;;;;;5067732;28;20028;-69
2022/01/26 06:11:13;;;;;;;41.20;20.67;;;;;;;;;;5060623;28;20025;-70
2022/01/26 06:13:38;;;;;;;43.63;20.30;;;;;;;;;;5067613;28;20025;-69
2022/01/26 06:16:04;;;;;;;41.37;20.07;;;;;;;;;;5064327;28;20495;-69
2022/01/26 06:18:29;;;;;;;41.63;20.40;;;;;;;;;;5067379;28;20032;-70
2022/01/26 06:20:55;;;;;;;42.10;19.87;;;;;;;;;;5064544;28;20394;-70
2022/01/26 06:23:24;;;;;;;41.83;20.07;;;;;;;;;;5063671;28;20441;-70
2022/01/26 06:25:51;;;;;;;;;;;;;;;;;;5065050;28;20119;-68
2022/01/26 06:28:16;;;;;;;42.73;19.70;;;;;;;;;;5062301;28;19955;-69
2022/01/26 06:30:44;;;;;;;40.37;19.57;;;;;;;;;;5056058;28;20021;-70
2022/01/26 06:33:10;;;;;;;39.27;20.03;;;;;;;;;;5063069;28;20038;-69
2022/01/26 06:35:35;;;;;;;39.47;18.83;;;;;;;;;;5067605;28;20121;-71
2022/01/26 06:38:00;;;;;;;40.43;19.77;;;;;;;;;;5066565;28;20032;-70
2022/01/26 06:40:26;;;;;;;46.10;21.00;;;;;;;;;;5065664;28;20117;-70
2022/01/26 06:42:55;;;;;;;42.30;20.33;;;;;;;;;;5066874;28;20121;-69
2022/01/26 06:45:24;;;;;;;41.97;19.52;;;;;;;;;;5057434;28;20082;-70
2022/01/26 06:50:15;;;;;;;36.67;19.20;;;;;;;;;;5070907;28;20432;-69
2022/01/26 06:52:43;;;;;;;36.77;18.40;;;;;;;;;;5061939;28;20020;-70
2022/01/26 06:55:09;;;;;;;40.07;20.60;;;;;;;;;;5070626;28;20039;-69
2022/01/26 06:57:34;;;;;;;41.93;20.33;;;;;;;;;;5070827;28;20072;-70
2022/01/26 06:59:59;;;;;;;39.93;20.03;;;;;;;;;;5070297;28;20423;-68
2022/01/26 07:02:24;;;;;;;42.27;21.00;;;;;;;;;;5069143;28;20064;-71
2022/01/26 07:04:50;;;;;;;47.77;20.57;;;;;;;;;;5065049;28;20032;-70
2022/01/26 07:07:15;;;;;;;42.53;20.00;;;;;;;;;;5070296;28;20093;-70
2022/01/26 07:09:40;;;;;;;42.53;19.80;;;;;;;;;;5067002;28;20020;-70
2022/01/26 07:12:05;;;;;;;37.00;18.57;;;;;;;;;;5066394;28;20029;-68
2022/01/26 07:22:33;;;;;;;41.53;19.43;;;;;;;;;;5066395;28;20040;-71
2022/01/26 07:24:59;;;;;;;43.70;21.03;;;;;;;;;;5062198;28;20040;-69
2022/01/26 07:27:24;;;;;;;41.80;19.33;;;;;;;;;;5070275;28;20108;-69
2022/01/26 07:29:50;;;;;;;34.57;19.40;;;;;;;;;;5066870;28;20025;-69
2022/01/26 07:32:15;;;;;;;39.43;18.90;;;;;;;;;;5069532;28;20056;-70
2022/01/26 07:34:41;;;;;;;36.37;18.30;;;;;;;;;;5064370;28;20029;-69
2022/01/26 07:37:09;;;;;;;37.43;18.23;;;;;;;;;;5069812;28;20495;-70
2022/01/26 07:39:47;;;;;;;39.20;18.40;;;;;;;;;;5061112;28;20086;-70
2022/01/26 07:42:12;;;;;;;36.03;17.53;;;;;;;;;;5063434;28;20028;-69
2022/01/26 07:44:38;;;;;;;34.83;17.20;;;;;;;;;;5067882;28;20087;-69
2022/01/26 07:47:03;;;;;;;34.00;17.30;;;;;;;;;;5060853;28;20035;-70
2022/01/26 07:49:28;;;;;;;32.27;16.27;;;;;;;;;;5059729;28;20059;-71
2022/01/26 07:51:54;;;;;;;33.03;16.23;;;;;;;;;;5070811;28;20025;-69
2022/01/26 07:54:21;;;;;;;31.43;16.53;;;;;;;;;;5068260;28;20028;-70
2022/01/26 07:56:46;;;;;;;33.43;17.13;;;;;;;;;;5067581;28;20025;-69
2022/01/26 07:59:12;;;;;;;34.03;17.33;;;;;;;;;;5067687;28;20086;-69
2022/01/26 08:01:37;;;;;;;31.80;16.07;;;;;;;;;;5066319;28;20089;-69
2022/01/26 08:04:02;;;;;;;30.38;15.38;;;;;;;;;;5056014;28;20435;-69
2022/01/26 08:06:27;;;;;;;32.20;16.00;;;;;;;;;;5061353;28;20501;-69
2022/01/26 08:08:53;;;;;;;30.73;15.03;;;;;;;;;;5064168;28;20024;-70
2022/01/26 08:11:18;;;;;;;29.55;15.38;;;;;;;;;;5069290;28;20021;-69
2022/01/26 08:13:43;;;;;;;29.23;15.27;;;;;;;;;;5065193;28;20025;-68
2022/01/26 08:16:08;;;;;;;33.45;16.63;;;;;;;;;;5065823;28;20021;-69
2022/01/26 08:18:34;;;;;;;31.23;15.50;;;;;;;;;;5065204;28;20035;-70
2022/01/26 08:21:04;;;;;;;31.75;16.15;;;;;;;;;;5069292;28;20016;-69
2022/01/26 08:23:30;;;;;;;32.25;16.80;;;;;;;;;;5070410;28;20021;-70
2022/01/26 08:25:55;;;;;;;33.10;16.10;;;;;;;;;;5070609;28;20028;-69
2022/01/26 08:28:26;;;;;;;30.58;16.17;;;;;;;;;;5062056;28;20027;-69
2022/01/26 08:30:51;;;;;;;29.13;16.63;;;;;;;;;;5066297;28;20041;-69
2022/01/26 08:33:17;;;;;;;30.63;16.52;;;;;;;;;;5070548;28;20108;-70
2022/01/26 08:35:42;;;;;;;29.90;15.40;;;;;;;;;;5066705;28;20028;-69
2022/01/26 08:38:07;;;;;;;29.98;15.18;;;;;;;;;;5067337;28;20020;-70
2022/01/26 08:40:33;;;;;;;27.05;15.10;;;;;;;;;;5070239;28;20061;-69
2022/01/26 08:42:58;;;;;;;28.52;15.30;;;;;;;;;;5063037;28;20120;-69
2022/01/26 08:45:24;;;;;;;31.73;14.93;;;;;;;;;;5063358;28;20023;-66
2022/01/26 08:47:49;;;;;;;27.08;14.07;;;;;;;;;;5068430;28;20042;-67
2022/01/26 08:50:15;;;;;;;26.63;14.77;;;;;;;;;;5069269;28;20187;-66
2022/01/26 08:52:40;;;;;;;28.00;14.38;;;;;;;;;;5063227;28;20030;-66
2022/01/26 08:55:06;;;;;;;26.83;15.13;;;;;;;;;;5062076;28;20063;-67
2022/01/26 08:57:32;;;;;;;27.35;14.77;;;;;;;;;;5066179;28;20032;-66
2022/01/26 08:59:58;;;;;;;25.88;13.60;;;;;;;;;;5063763;28;20024;-66
2022/01/26 09:02:24;;;;;;;22.83;13.48;;;;;;;;;;5065728;28;20067;-66
2022/01/26 09:04:49;;;;;;;26.20;15.10;;;;;;;;;;5063092;28;20044;-66
2022/01/26 09:07:15;;;;;;;27.67;14.55;;;;;;;;;;5066714;28;20508;-66
2022/01/26 09:09:43;;;;;;;27.13;14.75;;;;;;;;;;5061797;28;20020;-66
2022/01/26 09:12:11;;;;;;;25.88;13.88;;;;;;;;;;5065306;28;20033;-67
2022/01/26 09:14:36;;;;;;;25.88;14.05;;;;;;;;;;5062739;28;20032;-67
2022/01/26 09:17:03;;;;;;;24.73;13.52;;;;;;;;;;5069658;28;20051;-66
2022/01/26 09:19:30;;;;;;;24.30;14.40;;;;;;;;;;5068260;28;20024;-66
2022/01/26 09:21:56;;;;;;;24.83;13.45;;;;;;;;;;5061938;28;20414;-60
2022/01/26 09:24:21;;;;;;;22.67;12.93;;;;;;;;;;5062327;28;20074;-60
2022/01/26 09:26:46;;;;;;;26.73;14.95;;;;;;;;;;5068904;28;20032;-60
2022/01/26 09:29:12;;;;;;;26.55;14.60;;;;;;;;;;5064323;28;20402;-60
2022/01/26 09:31:37;;;;;;;30.48;14.90;;;;;;;;;;5066554;28;20059;-60
2022/01/26 09:34:02;;;;;;;26.20;15.13;;;;;;;;;;5069019;28;20024;-60
2022/01/26 09:36:28;;;;;;;28.95;14.77;;;;;;;;;;5068107;28;20032;-60
2022/01/26 09:38:53;;;;;;;27.73;14.98;;;;;;;;;;5062813;28;20036;-62
2022/01/26 09:41:19;;;;;;;26.80;14.38;;;;;;;;;;5061286;28;20020;-60
2022/01/26 09:43:44;;;;;;;28.55;15.88;;;;;;;;;;5069221;28;20093;-61
2022/01/26 09:46:11;;;;;;;30.10;14.90;;;;;;;;;;5069152;28;20028;-59
2022/01/26 09:48:38;;;;;;;28.75;14.55;;;;;;;;;;5067442;28;20028;-61
2022/01/26 09:51:03;;;;;;;31.52;14.63;;;;;;;;;;5070343;28;20027;-60
2022/01/26 09:53:30;;;;;;;28.80;15.05;;;;;;;;;;5069999;28;20103;-61
2022/01/26 09:55:56;;;;;;;25.77;13.93;;;;;;;;;;5070795;28;20028;-61
2022/01/26 09:58:21;;;;;;;27.55;14.80;;;;;;;;;;5067448;28;20125;-61
2022/01/26 10:00:46;;;;;;;26.60;13.85;;;;;;;;;;5063076;28;20466;-60
2022/01/26 10:03:11;;;;;;;26.50;14.32;;;;;;;;;;5067703;28;20600;-60
2022/01/26 10:05:38;;;;;;;26.88;14.98;;;;;;;;;;5066120;28;20819;-61
2022/01/26 10:15:26;;;;;;;26.88;13.85;;;;;;;;;;5063961;28;20032;-62
2022/01/26 10:16:20;;;;;;;23.98;14.07;;;;;;;;;;5066441;28;20452;-61
2022/01/26 10:18:49;;;;;;;26.40;13.63;;;;;;;;;;5069300;28;20391;-61
2022/01/26 10:21:14;;;;;;;27.73;14.13;;;;;;;;;;5063556;28;20036;-61
2022/01/26 10:23:41;;;;;;;27.83;14.68;;;;;;;;;;5072975;28;20021;-60
2022/01/26 10:26:13;;;;;;;24.60;13.85;;;;;;;;;;5075442;28;20123;-60
2022/01/26 10:28:41;;;;;;;24.77;13.93;;;;;;;;;;5075498;28;20422;-62
2022/01/26 10:31:17;;;;;;;26.33;14.07;;;;;;;;;;5069726;28;20073;-61
2022/01/26 10:33:58;;;;;;;24.48;13.35;;;;;;;;;;5072785;28;20036;-60
2022/01/26 10:36:24;;;;;;;25.65;13.68;;;;;;;;;;5069130;28;20013;-59
2022/01/26 10:38:56;;;;;;;27.48;14.55;;;;;;;;;;5075608;28;20039;-60
2022/01/26 10:41:22;;;;;;;26.75;14.15;;;;;;;;;;5074665;28;20024;-61
2022/01/26 10:43:51;;;;;;;28.25;13.73;;;;;;;;;;5074769;28;20387;-60
2022/01/26 10:46:26;;;;;;;25.25;13.52;;;;;;;;;;5075158;28;20029;-61
2022/01/26 10:49:05;;;;;;;23.45;13.73;;;;;;;;;;5073535;28;20502;-61
2022/01/26 10:54:24;;;;;;;22.08;12.85;;;;;;;;;;5032205;28;19916;-61
2022/01/26 10:56:51;;;;;;;25.95;14.27;;;;;;;;;;5032235;28;20573;-60
2022/01/26 10:59:16;;;;;;;22.50;12.50;;;;;;;;;;5031997;28;20029;-61
2022/01/26 11:01:42;;;;;;;23.50;12.95;;;;;;;;;;5032066;28;20043;-61
2022/01/26 11:04:07;;;;;;;21.83;13.00;;;;;;;;;;5032066;28;20487;-61
2022/01/26 11:06:33;;;;;;;23.80;13.90;;;;;;;;;;5029798;28;20594;-61
2022/01/26 11:09:01;;;;;;;26.65;13.25;;;;;;;;;;5032060;28;20492;-60
2022/01/26 11:11:26;;;;;;;27.25;13.85;;;;;;;;;;5032082;28;20037;-61
2022/01/26 11:13:52;;;;;;;25.80;14.82;;;;;;;;;;5031756;28;20684;-61
2022/01/26 11:16:20;;;;;;;24.73;13.82;;;;;;;;;;5031824;28;20029;-61
2022/01/26 11:18:51;;;;;;;26.15;13.63;;;;;;;;;;5032065;28;20096;-60
2022/01/26 11:21:26;;;;;;;24.17;13.32;;;;;;;;;;5031757;28;20511;-61
2022/01/26 11:24:03;;;;;;;24.48;14.10;;;;;;;;;;5028434;28;20037;-61
2022/01/26 11:26:28;;;;;;;24.65;14.43;;;;;;;;;;5025964;28;20103;-61
2022/01/26 11:28:53;;;;;;;23.27;13.63;;;;;;;;;;5032111;28;20465;-61
2022/01/26 11:31:19;;;;;;;28.90;13.48;;;;;;;;;;5054763;28;20028;-61
2022/01/26 11:33:48;;;;;;;23.58;14.02;;;;;;;;;;5070431;28;20805;-60
2022/01/26 11:36:16;;;;;;;23.52;13.30;;;;;;;;;;5070609;28;20024;-61
2022/01/26 11:47:09;;;;;;;29.50;14.45;;;;;;;;;;5066952;28;20077;-60
2022/01/26 11:49:36;;;;;;;24.73;13.45;;;;;;;;;;5071407;28;20419;-60
2022/01/26 11:52:01;;;;;;;26.10;13.90;;;;;;;;;;5069497;28;20112;-61
2022/01/26 11:54:28;;;;;;;26.67;15.07;;;;;;;;;;5071592;28;20095;-61
2022/01/26 11:56:53;;;;;;;27.38;15.23;;;;;;;;;;5070503;28;20472;-61
2022/01/26 11:59:20;;;;;;;30.55;15.93;;;;;;;;;;5064241;28;20135;-60
2022/01/26 12:01:53;;;;;;;27.27;14.85;;;;;;;;;;5071326;28;20017;-60
2022/01/26 12:04:18;;;;;;;25.85;14.80;;;;;;;;;;5065210;28;20031;-61
2022/01/26 12:06:50;;;;;;;26.35;14.38;;;;;;;;;;5067180;28;20044;-60
2022/01/26 12:09:17;;;;;;;27.10;15.15;;;;;;;;;;5065400;28;20073;-61
2022/01/26 12:11:46;;;;;;;28.08;14.95;;;;;;;;;;5071189;28;20099;-60
2022/01/26 12:14:13;;;;;;;26.15;14.70;;;;;;;;;;5070925;28;20498;-60
2022/01/26 12:16:45;;;;;;;25.58;14.45;;;;;;;;;;5063618;28;20480;-61
2022/01/26 12:35:19;;;;;;;26.85;15.65;;;;;;;;;;5069452;28;20059;-60
2022/01/26 12:38:08;;;;;;;26.33;15.10;;;;;;;;;;5070336;28;20081;-61
2022/01/26 12:43:31;;;;;;;28.23;16.45;;;;;;;;;;5070052;28;20158;-61
2022/01/26 12:45:57;;;;;;;27.52;16.05;;;;;;;;;;5070438;28;20209;-60
2022/01/26 12:48:22;;;;;;;29.25;16.15;;;;;;;;;;5070518;28;20487;-62
2022/01/26 12:50:48;;;;;;;31.33;17.20;;;;;;;;;;5062550;28;20028;-61
2022/01/26 12:53:13;;;;;;;30.17;17.42;;;;;;;;;;5069241;28;20028;-60
2022/01/26 12:55:39;;;;;;;31.50;17.25;;;;;;;;;;5069996;28;20426;-61
2022/01/26 12:58:05;;;;;;;31.30;16.95;;;;;;;;;;5070210;28;20032;-60
2022/01/26 13:00:41;;;;;;;31.20;16.50;;;;;;;;;;5066672;28;20063;-61
2022/01/26 13:03:10;;;;;;;28.33;16.25;;;;;;;;;;5069656;28;20028;-60
2022/01/26 13:05:35;;;;;;;27.95;14.63;;;;;;;;;;5068288;28;20043;-63
2022/01/26 13:08:02;;;;;;;24.58;15.05;;;;;;;;;;5066516;28;20128;-61
2022/01/26 13:10:28;;;;;;;28.15;15.73;;;;;;;;;;5060885;28;20040;-60
2022/01/26 13:12:54;;;;;;;31.25;15.85;;;;;;;;;;5065923;28;20107;-61
2022/01/26 13:15:24;;;;;;;29.70;16.30;;;;;;;;;;5067031;28;20100;-60
2022/01/26 13:17:55;;;;;;;29.15;15.70;;;;;;;;;;5069383;28;20082;-61
2022/01/26 13:25:53;;;;;;;28.90;16.65;;;;;;;;;;5055016;28;20040;-62
2022/01/26 13:34:12;;;;;;;28.15;15.73;;;;;;;;;;5061404;28;20050;-60
2022/01/26 13:50:38;;;;;;;31.17;17.13;;;;;;;;;;5018256;28;20033;-60
2022/01/26 13:53:15;;;;;;;31.88;18.48;;;;;;;;;;5019817;28;20052;-61
2022/01/26 14:00:58;;;;;;;29.35;17.08;;;;;;;;;;5023814;28;20159;-61
2022/01/26 14:03:25;;;;;;;31.60;17.02;;;;;;;;;;5021332;28;20081;-60
2022/01/26 14:05:51;;;;;;;32.15;17.20;;;;;;;;;;5016909;28;20045;-61
2022/01/26 14:08:16;;;;;;;26.52;16.05;;;;;;;;;;5016303;28;20096;-61
2022/01/26 14:10:44;;;;;;;30.55;16.88;;;;;;;;;;5042628;28;20459;-60
2022/01/26 14:13:09;;;;;;;28.60;17.00;;;;;;;;;;5055773;28;20036;-61
2022/01/26 14:15:40;;;;;;;26.73;16.63;;;;;;;;;;5055570;28;20021;-60
2022/01/26 14:20:52;;;;;;;26.80;15.68;;;;;;;;;;5057424;28;20028;-62
2022/01/26 14:23:43;;;;;;;26.35;16.20;;;;;;;;;;5064732;28;20530;-61
2022/01/26 14:26:10;;;;;;;24.80;15.80;;;;;;;;;;5065264;28;20244;-61
2022/01/26 14:28:36;;;;;;;;;;;;;;;;;;5059052;28;20345;-61
2022/01/26 15:20:10;;;;;;;28.25;17.48;;;;;;;;;;5069871;28;20098;-59
2022/01/26 15:35:27;;;;;;;33.83;20.17;;;;;;;;;;5070231;28;20505;-62
2022/01/26 15:49:31;;;;;;;36.25;20.17;;;;;;;;;;5071898;28;20458;-62
2022/01/26 16:21:13;;;;;;;61.58;29.02;;;;;;;;;;5021749;28;20060;-59
2022/01/26 16:37:55;;;;;;;64.07;31.20;;;;;;;;;;4943079;29;20054;-61
2022/01/26 17:24:19;;;;;;;64.43;30.37;;;;;;;;;;5069412;28;20086;-61
2022/01/26 18:17:19;;;;;;;72.28;33.88;;;;;;;;;;5006546;28;20112;-61
2022/01/26 18:33:17;;;;;;;72.57;31.85;;;;;;;;;;5067813;28;20687;-67
2022/01/26 18:38:53;;;;;;;70.70;32.08;;;;;;;;;;5058720;28;20039;-66
2022/01/26 18:49:12;;;;;;;71.35;32.13;;;;;;;;;;5071483;28;20039;-69
2022/01/26 18:51:39;;;;;;;77.45;32.03;;;;;;;;;;5064373;28;20491;-69
2022/01/26 18:54:05;;;;;;;80.43;32.08;;;;;;;;;;5066235;28;20020;-69
2022/01/26 18:56:30;;;;;;;74.00;32.22;;;;;;;;;;5067132;28;20024;-69
2022/01/26 18:58:56;;;;;;;70.85;30.67;;;;;;;;;;5065940;28;20475;-68
2022/01/26 19:01:21;;;;;;;74.00;33.65;;;;;;;;;;5066316;28;20031;-69
2022/01/26 19:03:46;;;;;;;80.10;34.05;;;;;;;;;;5071098;28;20101;-69
2022/01/26 19:06:11;;;;;;;73.03;32.13;;;;;;;;;;5070877;28;20351;-69
2022/01/26 19:08:39;;;;;;;77.32;34.05;;;;;;;;;;5067102;28;20040;-69
2022/01/26 19:11:04;;;;;;;77.85;34.03;;;;;;;;;;5066922;28;20025;-69
2022/01/26 19:13:31;;;;;;;73.07;32.10;;;;;;;;;;5064972;28;20267;-68
2022/01/26 19:16:03;;;;;;;76.40;33.50;;;;;;;;;;5061660;28;20025;-69
2022/01/26 19:18:45;;;;;;;75.05;32.35;;;;;;;;;;5065834;28;20026;-69
2022/01/26 19:24:09;;;;;;;73.40;31.73;;;;;;;;;;5064606;28;20021;-69
2022/01/26 19:26:40;;;;;;;80.75;33.58;;;;;;;;;;5068432;28;20024;-69
2022/01/26 19:29:32;;;;;;;76.65;31.27;;;;;;;;;;5063682;28;20024;-67
2022/01/26 19:40:16;;;;;;;79.13;33.55;;;;;;;;;;5023930;28;20043;-68
2022/01/26 19:41:08;;;;;;;80.30;35.33;;;;;;;;;;5021889;28;20083;-67
2022/01/26 19:46:28;;;;;;;82.78;34.80;;;;;;;;;;5023820;28;20083;-67
2022/01/26 19:51:46;;;;;;;89.40;35.50;;;;;;;;;;5020496;28;20072;-67
2022/01/26 19:54:11;;;;;;;90.13;36.70;;;;;;;;;;5024265;28;20030;-67
2022/01/26 19:56:36;;;;;;;87.93;36.28;;;;;;;;;;5028725;28;20112;-68
2022/01/26 19:59:02;;;;;;;88.82;35.67;;;;;;;;;;5019557;28;20037;-66
2022/01/26 20:01:28;;;;;;;96.38;38.22;;;;;;;;;;5024191;28;20489;-67
2022/01/26 20:03:53;;;;;;;90.45;36.60;;;;;;;;;;5026945;28;20160;-68
2022/01/26 20:06:18;;;;;;;90.57;36.00;;;;;;;;;;5022599;28;20071;-67
2022/01/26 20:08:57;;;;;;;89.60;37.38;;;;;;;;;;5028214;28;20127;-67
2022/01/26 20:11:39;;;;;;;87.03;36.10;;;;;;;;;;5024060;28;20021;-67
2022/01/26 20:14:06;;;;;;;91.10;36.45;;;;;;;;;;5064478;28;20028;-66
2022/01/26 20:16:32;;;;;;;88.97;34.95;;;;;;;;;;5066154;28;20048;-68
2022/01/26 20:18:58;;;;;;;83.65;33.42;;;;;;;;;;5058325;28;20141;-67
2022/01/26 20:21:23;;;;;;;78.77;34.13;;;;;;;;;;5063457;28;20489;-67
2022/01/26 20:23:48;;;;;;;74.93;34.80;;;;;;;;;;5068197;28;20033;-66
2022/01/26 20:26:14;;;;;;;82.13;34.30;;;;;;;;;;5065124;28;20450;-66
2022/01/26 20:28:41;;;;;;;79.73;34.40;;;;;;;;;;5059841;28;20032;-67
2022/01/26 20:31:16;;;;;;;80.30;34.75;;;;;;;;;;5064147;28;20123;-67
2022/01/26 20:33:41;;;;;;;82.38;33.58;;;;;;;;;;5068812;28;20175;-66
2022/01/26 20:36:06;;;;;;;78.18;35.72;;;;;;;;;;5067243;28;20487;-66
2022/01/26 20:38:32;;;;;;;81.72;35.83;;;;;;;;;;5068527;28;20487;-66
2022/01/26 20:40:58;;;;;;;80.47;33.78;;;;;;;;;;5069631;28;20024;-66
2022/01/26 20:43:23;;;;;;;84.72;34.33;;;;;;;;;;5068743;28;20121;-65
2022/01/26 20:45:49;;;;;;;75.45;34.70;;;;;;;;;;5064831;28;20066;-67
2022/01/26 20:48:14;;;;;;;75.57;33.33;;;;;;;;;;5068923;28;20129;-68
2022/01/26 20:50:39;;;;;;;77.50;33.75;;;;;;;;;;5066252;28;20475;-66
2022/01/26 20:53:04;;;;;;;81.32;35.05;;;;;;;;;;5060312;28;20032;-65
2022/01/26 20:55:30;;;;;;;78.78;34.47;;;;;;;;;;5069850;28;20028;-68
2022/01/26 20:57:55;;;;;;;82.32;34.63;;;;;;;;;;5060393;28;20158;-68
2022/01/26 21:00:21;;;;;;;79.13;33.50;;;;;;;;;;5060532;28;20016;-65
2022/01/26 21:02:49;;;;;;;75.13;33.97;;;;;;;;;;5069024;28;20043;-67
2022/01/26 21:05:15;;;;;;;76.05;32.55;;;;;;;;;;5063618;28;20032;-67
2022/01/26 21:07:40;;;;;;;81.65;35.58;;;;;;;;;;5066190;28;20044;-67
2022/01/26 21:10:08;;;;;;;82.23;35.27;;;;;;;;;;5062030;28;20032;-68
2022/01/26 21:12:35;;;;;;;83.23;34.90;;;;;;;;;;5065374;28;20028;-67
2022/01/26 21:15:00;;;;;;;80.78;33.38;;;;;;;;;;5062310;28;20033;-68
2022/01/26 21:17:25;;;;;;;79.53;35.90;;;;;;;;;;5059362;28;20413;-67
2022/01/26 21:19:50;;;;;;;78.30;33.77;;;;;;;;;;5068731;28;20029;-68